Time;durP1;ratioP1;P1;durP2;ratioP2;P2;SDS_P1;SDS_P2;PMS_P1;PMS_P2;Temp;Humidity;BMP_temperature;BMP_pressure;BME280_temperature;BME280_humidity;BME280_pressure;Samples;Min_cycle;Max_cycle;Signal;HPM_P1;HPM_P2
2021/12/16 00:09:04;;;;;;;5.40;4.10;;;9.00;99.90;;;;;;5015655;28;20052;-78
2021/12/16 00:30:52;;;;;;;7.30;5.10;;;8.80;99.90;;;;;;5035135;28;20103;-78
2021/12/16 00:36:07;;;;;;;13.45;7.00;;;8.80;99.90;;;;;;4954550;28;20038;-78
2021/12/16 00:38:34;;;;;;;7.28;5.30;;;8.70;99.90;;;;;;4972112;28;20369;-79
2021/12/16 00:41:00;;;;;;;8.70;5.35;;;8.70;99.90;;;;;;4993370;28;20041;-79
2021/12/16 00:48:25;;;;;;;9.32;5.72;;;8.70;99.90;;;;;;5026553;28;20064;-79
2021/12/16 00:56:10;;;;;;;7.93;5.70;;;8.70;99.90;;;;;;5015590;28;20548;-77
2021/12/16 00:58:44;;;;;;;10.27;6.13;;;8.70;99.90;;;;;;5014777;28;20360;-80
2021/12/16 01:01:29;;;;;;;9.10;6.05;;;8.70;99.90;;;;;;5023744;28;20041;-79
2021/12/16 01:34:33;;;;;;;6.90;5.07;;;8.70;99.90;;;;;;5013391;28;20123;-78
2021/12/16 01:49:07;;;;;;;5.75;4.30;;;8.80;99.90;;;;;;5031746;28;20429;-80
2021/12/16 01:50:37;;;;;;;7.20;4.45;;;8.80;99.90;;;;;;5028056;28;20033;-77
2021/12/16 01:55:58;;;;;;;5.75;4.10;;;9.00;99.90;;;;;;5014131;28;20029;-78
2021/12/16 01:58:27;;;;;;;5.40;3.80;;;9.00;99.90;;;;;;5013327;28;20379;-79
2021/12/16 02:01:15;;;;;;;4.35;3.58;;;9.00;99.90;;;;;;5021481;28;20025;-78
2021/12/16 02:03:51;;;;;;;4.00;3.40;;;9.00;99.90;;;;;;5030646;28;20025;-78
2021/12/16 02:06:41;;;;;;;4.50;3.60;;;9.10;99.90;;;;;;5029832;28;20080;-78
2021/12/16 02:09:28;;;;;;;4.65;3.60;;;9.10;99.90;;;;;;5033026;28;20049;-78
2021/12/16 02:12:07;;;;;;;3.85;3.30;;;9.20;99.90;;;;;;5026433;28;20470;-79
2021/12/16 02:33:48;;;;;;;3.53;3.00;;;9.30;99.90;;;;;;5031474;28;20042;-78
2021/12/16 02:36:28;;;;;;;5.53;4.03;;;9.20;99.90;;;;;;5032633;28;20026;-80
2021/12/16 02:39:05;;;;;;;4.25;3.70;;;9.20;99.90;;;;;;5016294;28;20038;-79
2021/12/16 02:41:31;;;;;;;3.95;3.55;;;9.10;99.90;;;;;;5022550;28;20600;-79
2021/12/16 02:49:30;;;;;;;5.53;4.15;;;8.90;99.90;;;;;;4993467;28;20085;-79
2021/12/16 02:51:57;;;;;;;5.35;4.28;;;8.90;99.90;;;;;;5012622;28;20026;-78
2021/12/16 02:54:23;;;;;;;4.85;4.00;;;8.80;99.90;;;;;;5030701;28;20041;-77
2021/12/16 02:56:49;;;;;;;5.60;4.30;;;8.80;99.90;;;;;;5028448;28;20055;-77
2021/12/16 02:59:18;;;;;;;5.82;4.82;;;8.70;99.90;;;;;;5032200;28;20458;-79
2021/12/16 03:01:50;;;;;;;7.30;5.15;;;8.70;99.90;;;;;;5021419;28;20104;-79
2021/12/16 03:04:17;;;;;;;7.35;5.75;;;8.60;99.90;;;;;;5032490;28;20071;-78
2021/12/16 03:06:47;;;;;;;5.93;4.95;;;8.60;99.90;;;;;;5027797;28;20471;-79
2021/12/16 03:09:17;;;;;;;8.05;5.93;;;8.50;99.90;;;;;;5012365;28;20028;-79
2021/12/16 03:14:36;;;;;;;6.60;5.25;;;8.30;99.90;;;;;;5012031;28;20390;-79
2021/12/16 03:20:06;;;;;;;8.05;5.80;;;8.30;99.90;;;;;;5032216;28;20048;-78
2021/12/16 03:25:30;;;;;;;8.25;5.47;;;8.20;99.90;;;;;;5029462;28;20100;-77
2021/12/16 03:36:25;;;;;;;5.10;4.18;;;8.40;99.90;;;;;;5014359;28;20115;-79
2021/12/16 03:39:07;;;;;;;4.95;3.90;;;8.50;99.90;;;;;;5032188;28;20087;-80
2021/12/16 03:41:33;;;;;;;5.90;4.63;;;8.50;99.90;;;;;;5034482;28;20057;-76
2021/12/16 03:44:01;;;;;;;4.32;3.67;;;8.60;99.90;;;;;;5035311;28;20021;-80
2021/12/16 03:46:33;;;;;;;3.70;3.33;;;8.60;99.90;;;;;;5020107;28;20113;-78
2021/12/16 03:49:14;;;;;;;4.53;3.53;;;8.60;99.90;;;;;;5034104;28;20036;-79
2021/12/16 03:51:53;;;;;;;5.40;3.50;;;8.60;99.90;;;;;;5033681;28;20044;-78
2021/12/16 03:54:32;;;;;;;4.32;3.50;;;8.70;99.90;;;;;;5034351;28;20053;-80
2021/12/16 03:57:02;;;;;;;5.78;4.30;;;8.70;99.90;;;;;;5017506;28;20025;-80
2021/12/16 03:59:31;;;;;;;4.50;3.95;;;8.70;99.90;;;;;;5019595;28;20029;-79
2021/12/16 04:02:00;;;;;;;4.40;3.58;;;8.80;99.90;;;;;;5032419;28;20025;-78
2021/12/16 04:04:26;;;;;;;4.82;3.95;;;8.80;99.90;;;;;;5033896;28;20116;-79
2021/12/16 04:06:53;;;;;;;4.60;3.92;;;8.80;99.90;;;;;;5033536;28;20448;-79
2021/12/16 04:09:21;;;;;;;4.80;4.00;;;8.80;99.90;;;;;;5035071;28;20017;-77
2021/12/16 04:11:57;;;;;;;4.97;3.60;;;8.80;99.90;;;;;;5034978;28;20035;-80
2021/12/16 04:14:23;;;;;;;4.57;3.75;;;8.80;99.90;;;;;;5035566;28;20425;-79
2021/12/16 04:16:55;;;;;;;4.15;3.65;;;8.80;99.90;;;;;;5029805;28;20092;-79
2021/12/16 04:19:25;;;;;;;5.18;4.45;;;8.80;99.90;;;;;;5015312;28;20033;-79
2021/12/16 04:22:03;;;;;;;5.35;3.92;;;8.80;99.90;;;;;;5016183;28;20501;-77
2021/12/16 04:24:28;;;;;;;4.72;3.92;;;8.80;99.90;;;;;;5023110;28;20024;-80
2021/12/16 04:26:56;;;;;;;4.68;4.00;;;8.80;99.90;;;;;;5013600;28;20025;-79
2021/12/16 04:29:23;;;;;;;5.05;4.20;;;8.80;99.90;;;;;;5015076;28;20022;-79
2021/12/16 04:31:51;;;;;;;5.55;4.05;;;8.80;99.90;;;;;;5032470;28;20021;-80
2021/12/16 04:34:17;;;;;;;5.43;4.22;;;8.80;99.90;;;;;;5034663;28;20057;-80
2021/12/16 04:36:43;;;;;;;5.10;4.40;;;8.80;99.90;;;;;;5031900;28;20022;-80
2021/12/16 04:39:12;;;;;;;5.90;4.45;;;8.90;99.90;;;;;;5035061;28;20036;-79
2021/12/16 04:41:40;;;;;;;5.97;3.80;;;8.90;99.90;;;;;;5021279;28;20105;-80
2021/12/16 04:44:10;;;;;;;4.85;4.18;;;8.80;99.90;;;;;;5015656;28;20026;-78
2021/12/16 04:46:37;;;;;;;5.18;4.43;;;8.80;99.90;;;;;;5014529;28;20033;-78
2021/12/16 04:49:05;;;;;;;6.50;4.78;;;8.80;99.90;;;;;;5019800;28;20030;-79
2021/12/16 04:51:34;;;;;;;4.55;4.00;;;8.80;99.90;;;;;;5031547;28;20537;-80
2021/12/16 04:54:00;;;;;;;6.10;4.30;;;8.80;99.90;;;;;;5033962;28;20045;-77
2021/12/16 04:56:27;;;;;;;6.03;4.25;;;8.80;99.90;;;;;;5014993;28;20386;-78
2021/12/16 04:58:54;;;;;;;6.18;4.68;;;8.80;99.90;;;;;;5014231;28;20084;-79
2021/12/16 05:01:20;;;;;;;8.15;4.72;;;8.80;99.90;;;;;;5020139;28;20025;-80
2021/12/16 05:03:46;;;;;;;5.55;4.55;;;8.80;99.90;;;;;;5014883;28;20026;-80
2021/12/16 05:06:12;;;;;;;5.68;4.07;;;8.80;99.90;;;;;;5014549;28;20466;-78
2021/12/16 05:08:39;;;;;;;6.32;4.80;;;8.70;99.90;;;;;;5015449;28;20065;-78
2021/12/16 05:11:07;;;;;;;6.30;4.45;;;8.80;99.90;;;;;;5014595;28;20017;-79
2021/12/16 05:13:34;;;;;;;6.22;4.68;;;8.80;99.90;;;;;;5031876;28;20107;-80
2021/12/16 05:16:03;;;;;;;6.28;4.70;;;8.70;99.90;;;;;;5030631;28;20029;-80
2021/12/16 05:18:32;;;;;;;5.18;4.40;;;8.70;99.90;;;;;;5032591;28;20470;-80
2021/12/16 05:21:01;;;;;;;11.15;4.93;;;8.70;99.90;;;;;;5024397;28;20010;-80
2021/12/16 05:26:17;;;;;;;9.18;4.72;;;8.70;99.90;;;;;;5014268;28;20430;-79
2021/12/16 05:28:48;;;;;;;7.07;4.40;;;8.60;99.90;;;;;;5031386;28;20026;-80
2021/12/16 05:31:14;;;;;;;6.70;4.75;;;8.70;99.90;;;;;;5033536;28;20029;-79
2021/12/16 05:33:41;;;;;;;5.35;4.20;;;8.60;99.90;;;;;;5015541;28;20132;-80
2021/12/16 05:36:07;;;;;;;4.78;4.07;;;8.60;99.90;;;;;;5014794;28;20026;-80
2021/12/16 05:38:32;;;;;;;5.60;4.55;;;8.70;99.90;;;;;;5013986;28;20113;-79
2021/12/16 05:41:01;;;;;;;4.78;4.22;;;8.70;99.90;;;;;;5014828;28;20165;-80
2021/12/16 05:43:28;;;;;;;5.35;4.32;;;8.70;99.90;;;;;;5013288;28;20455;-79
2021/12/16 05:45:55;;;;;;;5.05;4.18;;;8.70;99.90;;;;;;5014507;28;20552;-80
2021/12/16 05:48:25;;;;;;;6.47;4.30;;;8.70;99.90;;;;;;5014946;28;20026;-80
2021/12/16 05:50:54;;;;;;;6.78;4.50;;;8.70;99.90;;;;;;5026226;28;20021;-80
2021/12/16 05:53:21;;;;;;;5.97;4.45;;;8.80;99.90;;;;;;5032861;28;20049;-79
2021/12/16 05:55:47;;;;;;;7.20;4.68;;;8.90;99.90;;;;;;5031393;28;20033;-78
2021/12/16 05:58:18;;;;;;;4.10;3.63;;;8.90;99.90;;;;;;5030229;28;20075;-79
2021/12/16 06:00:44;;;;;;;5.20;4.28;;;9.00;99.90;;;;;;5032234;28;20030;-79
2021/12/16 06:03:10;;;;;;;5.90;4.60;;;9.00;99.90;;;;;;5031154;28;20021;-78
2021/12/16 06:05:36;;;;;;;4.43;3.67;;;9.00;99.90;;;;;;5033175;28;20024;-76
2021/12/16 06:08:03;;;;;;;6.68;4.30;;;9.00;99.90;;;;;;5030031;28;20033;-78
2021/12/16 06:13:13;;;;;;;6.05;4.07;;;9.10;99.90;;;;;;5029190;28;20441;-78
2021/12/16 06:26:42;;;;;;;6.72;4.32;;;9.10;99.90;;;;;;4995234;28;20038;-78
2021/12/16 06:29:11;;;;;;;6.55;4.57;;;9.10;99.90;;;;;;5031528;28;20045;-80
2021/12/16 06:31:36;;;;;;;5.97;4.07;;;9.00;99.90;;;;;;5015423;28;20021;-77
2021/12/16 06:34:02;;;;;;;7.70;5.05;;;9.00;99.90;;;;;;5029803;28;20034;-79
2021/12/16 06:36:28;;;;;;;5.38;3.67;;;9.00;99.90;;;;;;5032710;28;20064;-80
2021/12/16 06:38:54;;;;;;;4.78;3.42;;;9.00;99.90;;;;;;5014681;28;20057;-81
2021/12/16 06:41:20;;;;;;;6.38;4.53;;;9.00;99.90;;;;;;5030244;28;20064;-81
2021/12/16 06:43:47;;;;;;;5.65;4.10;;;9.00;99.90;;;;;;5030983;28;20017;-78
2021/12/16 06:46:17;;;;;;;7.55;3.90;;;9.00;99.90;;;;;;5014366;28;20022;-81
2021/12/16 06:48:46;;;;;;;5.72;4.82;;;8.90;99.90;;;;;;5012523;28;20445;-81
2021/12/16 06:51:20;;;;;;;5.40;4.15;;;8.90;99.90;;;;;;5012676;28;20018;-82
2021/12/16 06:54:04;;;;;;;19.65;12.23;;;8.90;99.90;;;;;;5012857;28;20093;-80
2021/12/16 06:56:37;;;;;;;7.10;5.10;;;8.90;99.90;;;;;;5013301;28;20087;-77
2021/12/16 06:59:08;;;;;;;9.35;4.88;;;8.90;99.90;;;;;;5011516;28;20030;-80
2021/12/16 07:01:40;;;;;;;6.57;4.20;;;8.90;99.90;;;;;;5024071;28;20104;-82
2021/12/16 07:04:10;;;;;;;;;;;9.00;99.90;;;;;;5020336;28;20498;-81
2021/12/16 07:06:38;;;;;;;3.72;3.20;;;9.20;99.90;;;;;;5014424;28;19910;-79
2021/12/16 07:09:17;;;;;;;11.57;4.10;;;9.30;99.90;;;;;;5029198;28;20382;-80
2021/12/16 07:11:47;;;;;;;3.90;3.17;;;9.40;99.90;;;;;;5032366;28;20025;-80
2021/12/16 07:14:15;;;;;;;4.25;3.05;;;9.50;99.90;;;;;;5031141;28;20037;-80
2021/12/16 07:16:43;;;;;;;5.55;3.58;;;9.50;99.90;;;;;;5026582;28;20053;-80
2021/12/16 07:19:10;;;;;;;3.78;3.10;;;9.70;99.90;;;;;;5016449;28;20424;-80
2021/12/16 07:21:38;;;;;;;4.10;3.22;;;9.90;99.90;;;;;;5026649;28;20025;-80
2021/12/16 07:24:13;;;;;;;5.05;3.33;;;10.10;99.90;;;;;;5031459;28;20385;-80
2021/12/16 07:26:40;;;;;;;3.63;3.10;;;10.40;99.90;;;;;;5029523;28;20028;-80
2021/12/16 07:29:07;;;;;;;3.58;3.00;;;10.70;99.90;;;;;;5029853;28;20036;-80
2021/12/16 07:31:34;;;;;;;4.75;3.78;;;10.80;99.90;;;;;;5034170;28;20018;-80
2021/12/16 07:34:00;;;;;;;7.35;3.13;;;11.10;99.90;;;;;;5042516;28;20071;-81
2021/12/16 07:36:26;;;;;;;7.70;3.63;;;11.10;99.90;;;;;;5027805;28;20026;-81
2021/12/16 07:38:54;;;;;;;6.13;3.60;;;11.20;99.90;;;;;;5034921;28;20029;-80
2021/12/16 07:41:24;;;;;;;9.77;4.00;;;10.90;99.90;;;;;;5035544;28;20025;-80
2021/12/16 07:44:09;;;;;;;4.00;3.30;;;10.60;99.90;;;;;;5034027;28;20021;-80
2021/12/16 07:46:44;;;;;;;8.65;3.70;;;10.20;99.90;;;;;;5030772;28;20083;-81
2021/12/16 07:49:12;;;;;;;14.40;4.50;;;10.00;99.90;;;;;;5035420;28;20030;-79
2021/12/16 07:51:39;;;;;;;13.13;4.65;;;9.80;99.90;;;;;;5034472;28;20022;-79
2021/12/16 07:54:05;;;;;;;4.85;3.90;;;9.90;99.90;;;;;;5032518;28;20117;-78
2021/12/16 07:56:31;;;;;;;6.90;3.63;;;10.30;99.90;;;;;;5031958;28;20025;-80
2021/12/16 07:58:57;;;;;;;7.00;5.00;;;10.80;99.90;;;;;;5033095;28;20028;-80
2021/12/16 08:01:24;;;;;;;5.63;3.85;;;11.40;99.90;;;;;;5035245;28;20021;-81
2021/12/16 08:03:51;;;;;;;7.10;4.13;;;12.00;99.90;;;;;;5032997;28;20385;-81
2021/12/16 08:06:22;;;;;;;3.85;3.15;;;12.80;99.90;;;;;;5033868;28;20032;-79
2021/12/16 08:08:57;;;;;;;5.00;3.67;;;13.60;99.90;;;;;;5035363;28;20469;-81
2021/12/16 08:11:27;;;;;;;8.32;4.43;;;14.10;99.90;;;;;;5030982;28;20029;-78
2021/12/16 08:13:52;;;;;;;7.43;3.08;;;14.90;99.90;;;;;;5033337;28;20098;-80
2021/12/16 08:16:22;;;;;;;15.07;3.90;;;15.40;99.90;;;;;;5039652;28;20021;-80
2021/12/16 08:18:49;;;;;;;9.18;3.25;;;15.60;99.90;;;;;;5033081;28;20022;-80
2021/12/16 08:21:15;;;;;;;6.28;3.17;;;16.30;99.90;;;;;;5035048;28;20033;-81
2021/12/16 08:23:41;;;;;;;3.47;3.15;;;16.10;99.90;;;;;;5024355;28;20370;-82
2021/12/16 08:26:07;;;;;;;4.97;3.08;;;16.00;99.90;;;;;;5032711;28;20132;-79
2021/12/16 08:28:33;;;;;;;12.25;4.03;;;16.20;99.90;;;;;;5016537;28;20101;-80
2021/12/16 08:30:59;;;;;;;6.18;3.55;;;16.00;99.90;;;;;;5014990;28;20064;-76
2021/12/16 08:33:25;;;;;;;5.35;3.03;;;16.20;99.90;;;;;;5020826;28;20079;-81
2021/12/16 08:35:53;;;;;;;3.78;3.38;;;16.90;99.90;;;;;;5055023;28;20029;-81
2021/12/16 08:38:21;;;;;;;7.78;3.40;;;17.40;99.90;;;;;;5018570;28;20040;-80
2021/12/16 08:40:51;;;;;;;7.22;2.80;;;18.40;99.90;;;;;;5016228;28;20022;-83
2021/12/16 08:43:18;;;;;;;4.07;3.28;;;19.10;99.90;;;;;;5015485;28;20072;-85
2021/12/16 08:45:45;;;;;;;4.40;2.83;;;19.60;99.90;;;;;;5015133;28;20045;-83
2021/12/16 08:48:12;;;;;;;4.90;2.80;;;19.40;99.90;;;;;;5014904;28;20018;-82
2021/12/16 08:50:45;;;;;;;5.93;2.63;;;19.30;99.90;;;;;;5015024;28;20524;-78
2021/12/16 08:53:11;;;;;;;5.20;3.40;;;18.40;99.90;;;;;;5028985;28;20048;-81
2021/12/16 08:55:44;;;;;;;7.32;3.25;;;17.50;99.90;;;;;;5022492;28;20100;-82
2021/12/16 08:58:09;;;;;;;3.30;2.80;;;16.80;99.90;;;;;;5019040;28;20089;-82
2021/12/16 09:00:40;;;;;;;5.07;3.13;;;16.30;99.90;;;;;;5013644;28;20025;-81
2021/12/16 09:03:06;;;;;;;4.00;3.10;;;16.10;99.90;;;;;;5014312;28;20100;-82
2021/12/16 09:05:33;;;;;;;6.43;3.72;;;15.90;99.90;;;;;;5014377;28;20065;-81
2021/12/16 09:07:59;;;;;;;8.57;4.40;;;14.80;99.90;;;;;;5022244;28;20048;-79
2021/12/16 09:10:29;;;;;;;4.22;3.50;;;14.40;99.90;;;;;;5039549;28;20444;-79
2021/12/16 09:13:04;;;;;;;8.95;4.20;;;14.10;99.90;;;;;;5031824;28;20037;-81
2021/12/16 09:15:39;;;;;;;4.10;3.30;;;14.00;99.90;;;;;;5033059;28;20136;-80
2021/12/16 09:18:07;;;;;;;4.25;3.17;;;14.20;99.90;;;;;;5032406;28;20029;-78
2021/12/16 09:20:33;;;;;;;6.30;3.45;;;14.30;99.90;;;;;;5033565;28;20469;-81
2021/12/16 09:22:59;;;;;;;14.65;3.75;;;14.00;99.90;;;;;;5031396;28;20522;-81
2021/12/16 09:25:25;;;;;;;5.25;3.60;;;13.80;99.90;;;;;;5030937;28;20658;-81
2021/12/16 09:27:52;;;;;;;5.05;3.90;;;13.80;99.90;;;;;;5014065;28;20026;-80
2021/12/16 09:30:22;;;;;;;4.28;3.33;;;13.60;99.90;;;;;;5030474;28;20048;-80
2021/12/16 09:32:49;;;;;;;3.88;3.40;;;13.40;99.90;;;;;;5032369;28;20073;-77
2021/12/16 09:35:15;;;;;;;4.22;3.58;;;13.30;99.90;;;;;;5027856;28;20079;-82
2021/12/16 09:37:41;;;;;;;4.25;3.40;;;13.30;99.90;;;;;;5033311;28;20022;-80
2021/12/16 09:40:13;;;;;;;4.95;3.22;;;13.50;99.90;;;;;;5033982;28;20474;-78
2021/12/16 09:42:39;;;;;;;4.95;4.07;;;13.70;99.90;;;;;;5030389;28;20065;-83
2021/12/16 09:45:12;;;;;;;3.70;3.30;;;13.70;99.90;;;;;;5033873;28;20026;-82
2021/12/16 09:47:39;;;;;;;3.67;2.80;;;13.70;99.90;;;;;;5033538;28;20474;-81
2021/12/16 09:50:08;;;;;;;7.88;3.63;;;13.70;99.90;;;;;;5032303;28;20041;-81
2021/12/16 09:52:35;;;;;;;4.40;3.45;;;13.90;99.90;;;;;;5032649;28;20509;-81
2021/12/16 09:55:01;;;;;;;10.10;3.55;;;14.20;99.90;;;;;;5032552;28;20494;-77
2021/12/16 09:57:28;;;;;;;3.30;2.90;;;14.20;99.90;;;;;;5022467;28;20537;-79
2021/12/16 09:59:55;;;;;;;5.38;3.55;;;14.40;99.90;;;;;;5032684;28;20374;-76
2021/12/16 10:02:22;;;;;;;5.25;3.60;;;14.40;99.90;;;;;;5032266;28;20688;-75
2021/12/16 10:04:48;;;;;;;11.43;3.92;;;14.70;99.90;;;;;;5046336;22;20049;-78
2021/12/16 10:07:25;;;;;;;4.32;3.20;;;14.70;99.90;;;;;;5032876;28;20049;-79
2021/12/16 10:09:54;;;;;;;4.40;3.13;;;14.40;99.90;;;;;;5030848;28;20029;-78
2021/12/16 10:12:25;;;;;;;4.57;3.30;;;14.10;99.90;;;;;;5013434;28;20374;-79
2021/12/16 10:17:38;;;;;;;4.40;3.33;;;13.40;99.90;;;;;;5012404;28;20022;-79
2021/12/16 10:20:13;;;;;;;3.10;2.75;;;13.50;99.90;;;;;;5012557;28;20026;-79
2021/12/16 10:22:42;;;;;;;4.60;3.30;;;13.60;99.90;;;;;;5011452;28;20028;-79
2021/12/16 10:25:30;;;;;;;5.50;3.72;;;13.70;99.90;;;;;;5013125;28;20054;-80
2021/12/16 10:28:13;;;;;;;6.00;3.55;;;13.60;99.90;;;;;;5012754;28;20026;-78
2021/12/16 10:31:02;;;;;;;4.93;3.92;;;13.10;99.90;;;;;;5025705;28;20563;-80
2021/12/16 10:34:01;;;;;;;4.03;3.03;;;12.90;99.90;;;;;;5031927;28;20045;-79
2021/12/16 10:36:30;;;;;;;8.95;4.25;;;12.80;99.90;;;;;;5028586;28;20037;-77
2021/12/16 10:39:09;;;;;;;5.78;3.70;;;13.10;99.90;;;;;;5031306;28;20561;-77
2021/12/16 10:41:38;;;;;;;4.55;3.35;;;13.10;99.90;;;;;;5031849;28;20017;-78
2021/12/16 10:44:29;;;;;;;7.65;3.20;;;13.00;99.90;;;;;;5031162;28;20649;-79
2021/12/16 10:47:09;;;;;;;6.40;3.95;;;13.30;99.90;;;;;;5012204;28;20026;-77
2021/12/16 10:49:45;;;;;;;9.20;3.70;;;12.90;99.90;;;;;;5015496;28;20026;-77
2021/12/16 10:52:14;;;;;;;3.70;3.15;;;13.00;99.90;;;;;;5031299;28;20022;-78
2021/12/16 10:54:46;;;;;;;4.75;3.53;;;13.00;99.90;;;;;;5031290;28;20037;-78
2021/12/16 10:57:15;;;;;;;7.32;4.00;;;12.90;99.90;;;;;;5029708;28;20085;-78
2021/12/16 10:59:45;;;;;;;5.72;4.13;;;13.10;99.90;;;;;;5031898;28;20061;-78
2021/12/16 11:02:13;;;;;;;4.47;3.75;;;13.10;99.90;;;;;;5031642;28;20026;-78
2021/12/16 11:04:50;;;;;;;4.53;3.70;;;13.10;99.90;;;;;;5031700;28;20117;-78
2021/12/16 11:07:24;;;;;;;8.98;3.75;;;13.30;99.90;;;;;;5031853;28;20091;-77
2021/12/16 11:09:53;;;;;;;5.55;3.60;;;13.20;99.90;;;;;;5031892;28;20021;-77
2021/12/16 11:12:32;;;;;;;10.10;6.13;;;13.10;99.90;;;;;;5031746;28;20018;-78
2021/12/16 11:14:57;;;;;;;4.13;3.42;;;13.40;99.90;;;;;;5030774;28;20116;-78
2021/12/16 11:17:29;;;;;;;7.85;3.65;;;13.60;99.90;;;;;;5031807;28;20096;-76
2021/12/16 11:20:05;;;;;;;5.18;3.80;;;13.50;99.90;;;;;;5031683;28;20478;-79
2021/12/16 11:22:35;;;;;;;4.85;3.50;;;13.70;99.90;;;;;;5031464;28;20037;-83
2021/12/16 11:25:24;;;;;;;8.73;3.47;;;13.90;99.90;;;;;;5031050;28;20446;-78
2021/12/16 11:28:10;;;;;;;6.30;3.67;;;13.70;99.90;;;;;;5031872;28;20032;-82
2021/12/16 11:31:05;;;;;;;4.93;3.53;;;13.20;99.90;;;;;;5031177;28;20116;-79
2021/12/16 11:33:34;;;;;;;6.20;3.30;;;13.40;99.90;;;;;;5014144;28;20689;-79
2021/12/16 11:36:17;;;;;;;5.95;3.60;;;13.30;99.90;;;;;;5031644;28;20040;-77
2021/12/16 11:38:59;;;;;;;4.55;3.55;;;13.30;99.90;;;;;;5031562;28;20021;-81
2021/12/16 11:41:26;;;;;;;;;;;13.50;99.90;;;;;;5013294;28;20466;-79
2021/12/16 11:44:06;;;;;;;3.63;3.15;;;13.70;99.90;;;;;;5031484;28;19947;-79
2021/12/16 11:46:34;;;;;;;3.35;3.00;;;13.30;99.90;;;;;;5031331;28;20493;-77
2021/12/16 11:49:06;;;;;;;4.43;3.17;;;13.10;99.90;;;;;;5029763;28;20036;-83
2021/12/16 11:51:50;;;;;;;3.13;2.80;;;13.20;99.90;;;;;;5031265;28;20057;-79
2021/12/16 11:54:44;;;;;;;4.30;3.30;;;13.20;99.90;;;;;;5030894;28;20506;-79
2021/12/16 11:57:13;;;;;;;10.05;3.08;;;13.10;99.90;;;;;;5028988;28;20860;-78
2021/12/16 11:59:55;;;;;;;11.60;3.40;;;12.80;99.90;;;;;;5032639;28;20439;-81
2021/12/16 12:02:38;;;;;;;;;;;12.70;99.90;;;;;;5035267;28;20032;-78
2021/12/16 12:05:16;;;;;;;10.63;3.47;;;12.50;99.90;;;;;;5034920;28;19917;-78
2021/12/16 12:07:49;;;;;;;11.98;3.00;;;12.30;99.90;;;;;;5035026;28;20029;-79
2021/12/16 12:10:22;;;;;;;6.97;4.55;;;12.30;99.90;;;;;;5034941;28;20108;-79
2021/12/16 12:12:49;;;;;;;8.57;3.58;;;12.20;99.90;;;;;;5034742;28;20053;-77
2021/12/16 12:15:18;;;;;;;17.83;3.47;;;12.10;99.90;;;;;;5035286;28;20377;-78
2021/12/16 12:17:52;;;;;;;14.38;3.60;;;12.10;99.90;;;;;;5034405;28;20033;-78
2021/12/16 12:20:32;;;;;;;12.45;3.28;;;12.20;99.90;;;;;;5034844;28;20359;-80
2021/12/16 12:22:59;;;;;;;13.05;3.10;;;12.20;99.90;;;;;;5032210;28;20025;-78
2021/12/16 12:25:26;;;;;;;10.05;3.78;;;12.20;99.90;;;;;;5029078;28;20045;-79
2021/12/16 12:27:52;;;;;;;20.60;3.35;;;12.30;99.90;;;;;;5033008;28;20029;-78
2021/12/16 12:30:19;;;;;;;5.85;3.20;;;12.30;99.90;;;;;;5034104;28;20036;-79
2021/12/16 12:32:49;;;;;;;17.58;2.95;;;12.20;99.90;;;;;;5033327;28;20112;-79
2021/12/16 12:35:20;;;;;;;6.65;3.92;;;12.10;99.90;;;;;;5035613;28;20021;-77
2021/12/16 12:37:50;;;;;;;14.93;3.50;;;12.10;99.90;;;;;;5034450;28;20033;-79
2021/12/16 12:40:22;;;;;;;5.10;3.08;;;12.00;99.90;;;;;;5034199;28;20018;-80
2021/12/16 12:42:50;;;;;;;13.37;3.13;;;12.00;99.90;;;;;;5032845;28;20445;-81
2021/12/16 12:45:21;;;;;;;10.13;3.50;;;11.80;99.90;;;;;;5037575;28;20032;-84
2021/12/16 12:47:52;;;;;;;14.63;3.30;;;11.80;99.90;;;;;;5035966;28;20064;-83
2021/12/16 12:50:25;;;;;;;12.88;3.90;;;11.80;99.90;;;;;;5034407;28;20029;-79
2021/12/16 12:52:53;;;;;;;5.47;3.13;;;11.70;99.90;;;;;;5034370;28;20033;-80
2021/12/16 12:55:28;;;;;;;6.18;3.10;;;11.80;99.90;;;;;;5033386;28;20025;-80
2021/12/16 12:58:04;;;;;;;4.22;3.15;;;11.80;99.90;;;;;;5035102;28;20025;-81
2021/12/16 13:00:52;;;;;;;3.67;2.78;;;11.80;99.90;;;;;;5034547;28;20025;-80
2021/12/16 13:03:28;;;;;;;12.38;3.72;;;11.70;99.90;;;;;;5034733;28;20430;-84
2021/12/16 13:06:16;;;;;;;4.75;3.22;;;11.70;99.90;;;;;;5032631;28;20029;-84
2021/12/16 13:08:45;;;;;;;11.05;3.20;;;11.70;99.90;;;;;;5033350;28;20045;-86
2021/12/16 13:11:16;;;;;;;5.40;3.17;;;11.70;99.90;;;;;;5033523;28;20026;-84
2021/12/16 13:14:19;;;;;;;6.20;3.10;;;11.60;99.90;;;;;;5033899;28;20064;-79
2021/12/16 13:28:21;;;;;;;9.02;3.38;;;11.70;99.90;;;;;;5034435;28;20382;-79
2021/12/16 13:31:04;;;;;;;3.63;2.92;;;11.80;99.90;;;;;;5032565;28;20060;-83
2021/12/16 13:33:54;;;;;;;4.65;2.63;;;11.70;99.90;;;;;;5033822;28;20021;-80
2021/12/16 13:36:44;;;;;;;2.70;2.30;;;11.60;99.90;;;;;;5033939;28;20067;-78
2021/12/16 13:39:21;;;;;;;8.35;3.80;;;11.60;99.90;;;;;;5033974;28;20028;-78
2021/12/16 13:41:58;;;;;;;9.68;2.90;;;11.50;99.90;;;;;;5033370;28;20029;-77
2021/12/16 13:44:43;;;;;;;3.38;2.58;;;11.50;99.90;;;;;;5033801;28;20025;-82
2021/12/16 14:02:33;;;;;;;6.25;2.60;;;11.50;99.90;;;;;;5014056;28;20109;-76
2021/12/16 14:08:02;;;;;;;3.22;2.15;;;11.50;99.90;;;;;;5033819;28;20105;-78
2021/12/16 14:25:14;;;;;;;2.53;2.17;;;11.40;99.90;;;;;;5032823;28;20044;-84
2021/12/16 14:42:13;;;;;;;16.65;3.30;;;11.30;99.90;;;;;;5016813;28;20044;-81
2021/12/16 14:50:16;;;;;;;13.13;3.95;;;11.30;99.90;;;;;;5032033;28;20028;-78
2021/12/16 14:52:42;;;;;;;10.57;3.25;;;11.20;99.90;;;;;;5031823;28;20426;-80
2021/12/16 14:55:13;;;;;;;12.45;3.95;;;11.10;99.90;;;;;;5030129;28;20057;-82
2021/12/16 14:57:42;;;;;;;;;;;11.10;99.90;;;;;;5025449;28;20477;-80
2021/12/16 15:00:34;;;;;;;7.97;3.05;;;11.10;99.90;;;;;;5031173;28;19996;-79
2021/12/16 15:03:10;;;;;;;40.90;5.05;;;11.00;99.90;;;;;;5028685;28;20445;-80
2021/12/16 15:05:39;;;;;;;5.72;2.65;;;11.00;99.90;;;;;;5025695;28;20049;-82
2021/12/16 15:08:14;;;;;;;3.55;2.53;;;10.90;99.90;;;;;;5034349;28;20108;-79
2021/12/16 15:10:42;;;;;;;11.90;4.05;;;10.90;99.90;;;;;;5031558;28;20075;-80
2021/12/16 15:13:15;;;;;;;25.20;5.05;;;10.90;99.90;;;;;;5030460;28;20030;-81
2021/12/16 15:16:32;;;;;;;11.82;3.67;;;10.80;99.90;;;;;;5031554;28;20095;-80
2021/12/16 15:38:21;;;;;;;15.32;4.55;;;10.30;99.90;;;;;;5035995;28;20547;-81
2021/12/16 15:42:44;;;;;;;11.07;4.25;;;10.20;99.90;;;;;;5034043;28;20029;-82
2021/12/16 15:43:33;;;;;;;7.32;3.83;;;10.20;99.90;;;;;;5018511;28;20101;-80
2021/12/16 15:46:04;;;;;;;6.03;3.45;;;10.10;99.90;;;;;;5038164;28;20022;-79
2021/12/16 15:48:31;;;;;;;9.85;4.95;;;10.10;99.90;;;;;;5035541;28;20486;-80
2021/12/16 15:51:02;;;;;;;9.20;5.70;;;10.10;99.90;;;;;;5035535;28;20112;-81
2021/12/16 15:53:31;;;;;;;12.65;4.47;;;10.10;99.90;;;;;;5018503;28;20383;-80
2021/12/16 15:56:06;;;;;;;8.75;3.78;;;10.10;99.90;;;;;;5016842;28;20037;-83
2021/12/16 15:58:37;;;;;;;4.90;3.53;;;10.10;99.90;;;;;;5015205;28;20036;-83
2021/12/16 16:01:16;;;;;;;4.60;3.13;;;10.10;99.90;;;;;;5027879;28;20032;-79
2021/12/16 16:03:42;;;;;;;4.43;2.83;;;10.10;99.90;;;;;;5034934;28;20203;-83
2021/12/16 16:06:10;;;;;;;4.65;2.83;;;10.10;99.90;;;;;;5035200;28;20147;-83
2021/12/16 16:08:40;;;;;;;4.68;3.17;;;10.20;99.90;;;;;;5034960;28;20067;-82
2021/12/16 16:11:11;;;;;;;3.78;2.60;;;10.20;99.90;;;;;;5034218;28;20385;-78
2021/12/16 16:13:43;;;;;;;4.00;3.10;;;10.20;99.90;;;;;;5034535;28;20053;-85
2021/12/16 16:16:14;;;;;;;13.38;2.75;;;10.20;99.90;;;;;;5034748;28;20088;-80
2021/12/16 16:18:43;;;;;;;3.78;2.22;;;10.30;99.90;;;;;;5034665;28;20022;-80
2021/12/16 16:21:21;;;;;;;3.53;2.78;;;10.30;99.90;;;;;;5034265;28;20033;-83
2021/12/16 16:23:54;;;;;;;2.90;2.40;;;10.30;99.90;;;;;;5026328;28;20438;-81
2021/12/16 16:26:21;;;;;;;4.38;2.85;;;10.30;99.90;;;;;;5015601;28;20050;-82
2021/12/16 16:28:52;;;;;;;4.32;2.60;;;10.30;99.90;;;;;;5015369;28;20030;-80
2021/12/16 16:31:21;;;;;;;4.10;2.80;;;10.40;99.90;;;;;;5015063;28;20772;-79
2021/12/16 16:33:48;;;;;;;4.43;2.65;;;10.40;99.90;;;;;;5014857;28;20044;-81
2021/12/16 16:36:17;;;;;;;3.25;2.63;;;10.40;99.90;;;;;;5015157;28;20026;-82
2021/12/16 16:38:49;;;;;;;7.22;3.00;;;10.30;99.90;;;;;;5020234;28;20447;-79
2021/12/16 16:41:17;;;;;;;8.13;2.50;;;10.30;99.90;;;;;;5034725;28;20387;-83
2021/12/16 16:43:58;;;;;;;3.20;2.60;;;10.30;99.90;;;;;;5034189;28;20108;-79
2021/12/16 16:46:44;;;;;;;3.35;2.58;;;10.30;99.90;;;;;;5033835;28;20026;-84
2021/12/16 16:49:27;;;;;;;5.68;3.97;;;10.30;99.90;;;;;;5034359;28;20389;-81
2021/12/16 16:51:55;;;;;;;9.27;3.75;;;10.30;99.90;;;;;;5033642;28;20030;-80
2021/12/16 16:54:27;;;;;;;6.78;3.55;;;10.20;99.90;;;;;;5015012;28;20394;-82
2021/12/16 16:56:57;;;;;;;4.57;3.45;;;10.10;99.90;;;;;;5017118;28;20022;-83
2021/12/16 16:59:30;;;;;;;3.67;2.70;;;10.10;99.90;;;;;;5034418;28;20021;-85
2021/12/16 17:01:57;;;;;;;3.78;2.50;;;10.10;99.90;;;;;;5034032;28;20052;-84